createdAt,value
2023-05-01T00:02:12.151Z,94.63
2023-05-01T00:04:40.963Z,93.95
2023-05-01T00:07:07.513Z,103.38
2023-05-01T00:09:34.250Z,101.03
2023-05-01T00:12:02.835Z,96.93
2023-05-01T00:14:32.137Z,91.20
2023-05-01T00:16:58.761Z,87.63
2023-05-01T00:19:27.657Z,94.65
2023-05-01T00:21:54.222Z,96.00
2023-05-01T00:24:25.140Z,92.53
2023-05-01T00:26:51.512Z,86.55
2023-05-01T00:29:18.058Z,95.70
2023-05-01T00:31:45.740Z,44.00
2023-05-01T00:34:12.415Z,36.50
2023-05-01T00:36:39.065Z,39.22
2023-05-01T00:39:08.367Z,52.83
2023-05-01T00:41:37.083Z,44.00
2023-05-01T00:44:03.860Z,47.20
2023-05-01T00:46:30.632Z,39.65
2023-05-01T00:48:59.692Z,33.10
2023-05-01T00:51:29.412Z,26.33
2023-05-01T00:53:56.279Z,36.78
2023-05-01T00:56:25.112Z,37.22
2023-05-01T00:58:54.194Z,35.15
2023-05-01T01:01:21.390Z,30.48
2023-05-01T01:03:48.377Z,33.78
2023-05-01T01:06:24.452Z,34.33
2023-05-01T01:09:11.523Z,31.92
2023-05-01T01:11:48.427Z,32.97
2023-05-01T01:14:17.654Z,23.70
2023-05-01T01:17:06.500Z,20.83
2023-05-01T01:19:39.203Z,23.13
2023-05-01T01:22:09.313Z,18.08
2023-05-01T01:24:48.641Z,23.05
2023-05-01T01:27:29.813Z,18.98
2023-05-01T01:30:05.581Z,12.65
2023-05-01T01:32:40.282Z,17.83
2023-05-01T01:35:09.151Z,14.18
2023-05-01T01:37:35.941Z,19.10
2023-05-01T01:40:07.912Z,86.72
2023-05-01T01:42:37.878Z,78.85
2023-05-01T01:45:13.937Z,76.82
2023-05-01T01:47:41.792Z,74.10
2023-05-01T01:50:10.237Z,77.45
2023-05-01T01:52:38.778Z,72.40
2023-05-01T01:55:06.624Z,68.43
2023-05-01T01:57:34.507Z,65.13
2023-05-01T02:00:00.878Z,65.50
2023-05-01T02:02:28.065Z,24.77
2023-05-01T02:04:57.125Z,11.23
2023-05-01T02:07:24.259Z,7.35
2023-05-01T02:09:52.577Z,30.17
2023-05-01T02:12:19.660Z,29.88
2023-05-01T02:14:47.673Z,37.35
2023-05-01T02:17:17.800Z,42.95
2023-05-01T02:19:45.113Z,36.20
2023-05-01T02:22:12.238Z,37.10
2023-05-01T02:24:39.567Z,50.53
2023-05-01T02:27:14.950Z,44.22
2023-05-01T02:29:41.606Z,36.88
2023-05-01T02:32:08.207Z,40.15
2023-05-01T02:34:35.761Z,38.60
2023-05-01T02:37:03.123Z,47.17
2023-05-01T02:39:29.613Z,44.78
2023-05-01T02:41:58.478Z,38.47
2023-05-01T02:44:28.521Z,82.50
2023-05-01T02:46:55.621Z,64.18
2023-05-01T02:49:22.680Z,58.38
2023-05-01T02:51:49.149Z,50.30
2023-05-01T02:54:16.391Z,63.75
2023-05-01T02:56:43.236Z,61.25
2023-05-01T02:59:12.075Z,63.63
2023-05-01T03:01:40.029Z,94.63
2023-05-01T03:04:06.580Z,91.10
2023-05-01T03:06:33.041Z,90.88
2023-05-01T03:08:59.618Z,91.40
2023-05-01T03:11:26.488Z,83.30
2023-05-01T03:13:55.423Z,89.28
2023-05-01T03:16:22.357Z,87.75
2023-05-01T03:18:49.122Z,66.60
2023-05-01T03:21:15.776Z,82.15
2023-05-01T03:23:42.218Z,89.38
2023-05-01T03:26:11.217Z,67.97
2023-05-01T03:28:37.684Z,56.97
2023-05-01T03:31:04.322Z,84.40
2023-05-01T03:33:31.676Z,76.45
2023-05-01T03:36:05.480Z,89.03
2023-05-01T03:38:32.372Z,82.82
2023-05-01T03:40:59.129Z,82.95
2023-05-01T03:43:25.875Z,89.43
2023-05-01T03:45:52.629Z,72.20
2023-05-01T03:48:19.772Z,75.68
2023-05-01T03:50:46.986Z,76.57
2023-05-01T03:53:13.917Z,84.90
2023-05-01T03:55:42.977Z,73.50
2023-05-01T03:58:10.725Z,84.85
2023-05-01T04:00:37.840Z,76.93
2023-05-01T04:03:05.142Z,71.63
2023-05-01T04:05:31.852Z,65.93
2023-05-01T04:07:58.364Z,68.88
2023-05-01T04:10:25.000Z,61.60
2023-05-01T04:12:51.595Z,53.70
2023-05-01T04:15:18.170Z,51.78
2023-05-01T04:17:44.907Z,50.67
2023-05-01T04:20:11.591Z,51.80
2023-05-01T04:22:38.201Z,56.85
2023-05-01T04:25:04.927Z,60.53
2023-05-01T04:27:31.771Z,61.17
2023-05-01T04:29:58.863Z,46.47
2023-05-01T04:32:25.728Z,47.08
2023-05-01T04:34:52.816Z,13.48
2023-05-01T04:37:19.397Z,4.88
2023-05-01T04:39:46.232Z,4.53
2023-05-01T04:42:12.863Z,3.80
2023-05-01T04:44:42.145Z,6.03
2023-05-01T04:47:09.568Z,4.28
2023-05-01T04:49:36.058Z,3.88
2023-05-01T04:52:03.829Z,4.65
2023-05-01T04:54:30.255Z,4.25
2023-05-01T04:56:56.787Z,4.30
2023-05-01T04:59:23.351Z,4.07
2023-05-01T05:01:49.806Z,4.90
2023-05-01T05:04:18.564Z,4.55
2023-05-01T05:06:47.722Z,4.32
2023-05-01T05:09:23.296Z,4.95
2023-05-01T05:11:52.241Z,4.82
2023-05-01T05:14:18.845Z,4.30
2023-05-01T05:16:45.643Z,4.50
2023-05-01T05:19:12.194Z,4.53
2023-05-01T05:21:38.740Z,4.07
2023-05-01T05:24:05.224Z,4.57
2023-05-01T05:26:31.598Z,4.50
2023-05-01T05:28:57.944Z,5.20
2023-05-01T05:31:24.440Z,4.63
2023-05-01T05:33:50.891Z,3.22
2023-05-01T05:36:17.328Z,4.00
2023-05-01T05:38:43.844Z,5.13
2023-05-01T05:41:10.243Z,7.10
2023-05-01T05:43:37.304Z,6.70
2023-05-01T05:46:03.779Z,5.68
2023-05-01T05:48:30.294Z,5.45
2023-05-01T05:50:57.495Z,5.80
2023-05-01T05:53:25.880Z,7.63
2023-05-01T05:55:52.577Z,6.95
2023-05-01T05:58:23.292Z,8.48
2023-05-01T06:00:50.195Z,7.40
2023-05-01T06:03:17.175Z,6.63
2023-05-01T06:05:44.234Z,6.28
2023-05-01T06:08:11.006Z,4.93
2023-05-01T06:10:39.628Z,5.97
2023-05-01T06:13:14.228Z,6.18
2023-05-01T06:15:41.443Z,5.35
2023-05-01T06:18:08.192Z,3.45
2023-05-01T06:20:34.784Z,4.20
2023-05-01T06:23:01.154Z,4.07
2023-05-01T06:25:27.735Z,4.15
2023-05-01T06:27:54.099Z,4.07
2023-05-01T06:30:21.215Z,5.28
2023-05-01T06:32:47.757Z,4.28
2023-05-01T06:35:14.165Z,4.75
2023-05-01T06:37:40.690Z,3.95
2023-05-01T06:40:08.321Z,4.78
2023-05-01T06:42:34.685Z,4.28
2023-05-01T06:45:01.030Z,5.22
2023-05-01T06:47:27.617Z,4.13
2023-05-01T06:49:54.202Z,4.47
2023-05-01T06:52:20.907Z,4.38
2023-05-01T06:54:47.233Z,4.60
2023-05-01T06:57:13.666Z,4.28
2023-05-01T06:59:40.220Z,4.15
2023-05-01T07:02:07.163Z,4.43
2023-05-01T07:04:33.601Z,5.25
2023-05-01T07:07:01.063Z,32.20
2023-05-01T07:09:27.432Z,25.65
2023-05-01T07:11:53.835Z,23.20
2023-05-01T07:14:20.293Z,23.52
2023-05-01T07:16:47.404Z,22.08
2023-05-01T07:19:14.088Z,18.95
2023-05-01T07:21:40.909Z,20.48
2023-05-01T07:24:07.405Z,20.42
2023-05-01T07:26:33.775Z,16.52
2023-05-01T07:29:00.118Z,17.63
2023-05-01T07:31:26.549Z,17.48
2023-05-01T07:33:54.150Z,19.33
2023-05-01T07:36:22.141Z,18.48
2023-05-01T07:38:48.856Z,18.27
2023-05-01T07:41:15.387Z,16.45
2023-05-01T07:43:41.719Z,14.77
2023-05-01T07:46:08.097Z,19.27
2023-05-01T07:48:35.596Z,17.33
2023-05-01T07:51:03.610Z,17.30
2023-05-01T07:53:30.153Z,14.80
2023-05-01T07:56:09.724Z,21.83
2023-05-01T07:58:37.000Z,19.85
2023-05-01T08:01:03.756Z,20.50
2023-05-01T08:03:31.025Z,22.45
2023-05-01T08:05:57.630Z,20.10
2023-05-01T08:08:24.282Z,18.98
2023-05-01T08:10:51.457Z,20.27
2023-05-01T08:13:18.218Z,19.52
2023-05-01T08:15:47.904Z,23.00
2023-05-01T08:18:19.881Z,20.23
2023-05-01T08:20:49.185Z,19.50
2023-05-01T08:23:16.496Z,22.88
2023-05-01T08:25:43.044Z,22.67
2023-05-01T08:28:09.638Z,13.45
2023-05-01T08:30:36.583Z,15.70
2023-05-01T08:33:03.537Z,10.18
2023-05-01T08:35:30.013Z,23.08
2023-05-01T08:37:56.397Z,25.77
2023-05-01T08:40:23.728Z,27.92
2023-05-01T08:42:50.862Z,23.08
2023-05-01T08:45:18.707Z,20.33
2023-05-01T08:47:45.458Z,14.98
2023-05-01T08:50:14.012Z,28.58
2023-05-01T08:52:42.089Z,24.13
2023-05-01T08:55:11.667Z,16.77
2023-05-01T08:57:38.378Z,17.25
2023-05-01T09:00:07.921Z,5.57
2023-05-01T09:02:35.046Z,5.70
2023-05-01T09:05:03.860Z,5.72
2023-05-01T09:07:30.234Z,10.85
2023-05-01T09:09:56.855Z,8.75
2023-05-01T09:12:25.289Z,14.45
2023-05-01T09:14:55.246Z,13.95
2023-05-01T09:17:22.251Z,11.70
2023-05-01T09:19:49.494Z,14.82
2023-05-01T09:22:16.105Z,13.85
2023-05-01T09:24:42.461Z,11.48
2023-05-01T09:27:09.346Z,14.60
2023-05-01T09:29:38.699Z,15.40
2023-05-01T09:32:17.266Z,14.70
2023-05-01T09:34:44.618Z,15.98
2023-05-01T09:37:13.066Z,17.45
2023-05-01T09:39:39.453Z,18.55
2023-05-01T09:42:05.901Z,19.02
2023-05-01T09:44:40.414Z,22.05
2023-05-01T09:47:08.238Z,14.75
2023-05-01T09:49:50.112Z,19.02
2023-05-01T09:52:16.941Z,8.32
2023-05-01T09:54:43.239Z,8.50
2023-05-01T09:57:10.047Z,7.65
2023-05-01T09:59:36.428Z,9.88
2023-05-01T10:02:02.881Z,11.70
2023-05-01T10:04:29.654Z,11.25
2023-05-01T10:06:56.086Z,10.77
2023-05-01T10:09:29.577Z,10.40
2023-05-01T10:11:58.960Z,11.13
2023-05-01T10:14:27.095Z,9.25
2023-05-01T10:16:53.805Z,10.38
2023-05-01T10:19:20.500Z,10.35
2023-05-01T10:21:46.891Z,13.45
2023-05-01T10:24:15.188Z,13.38
2023-05-01T10:26:42.263Z,20.08
2023-05-01T10:29:08.625Z,16.92
2023-05-01T10:31:36.082Z,17.42
2023-05-01T10:34:02.821Z,13.48
2023-05-01T10:36:34.475Z,13.18
2023-05-01T10:39:00.883Z,14.32
2023-05-01T10:41:46.186Z,15.02
2023-05-01T10:44:23.201Z,10.60
2023-05-01T10:46:49.863Z,12.68
2023-05-01T10:49:16.930Z,17.40
2023-05-01T10:51:58.683Z,16.20
2023-05-01T10:54:26.851Z,16.98
2023-05-01T10:56:54.529Z,18.92
2023-05-01T10:59:21.122Z,22.88
2023-05-01T11:01:48.681Z,7.68
2023-05-01T11:04:27.293Z,8.90
2023-05-01T11:07:05.942Z,14.50
2023-05-01T11:09:36.275Z,11.88
2023-05-01T11:12:03.010Z,19.88
2023-05-01T11:14:49.410Z,15.18
2023-05-01T11:17:35.754Z,11.32
2023-05-01T11:20:02.136Z,7.80
2023-05-01T11:22:28.590Z,14.18
2023-05-01T11:24:55.326Z,14.40
2023-05-01T11:27:21.829Z,13.13
2023-05-01T11:29:49.880Z,20.35
2023-05-01T11:32:22.438Z,13.18
2023-05-01T11:34:49.512Z,12.63
2023-05-01T11:37:15.894Z,9.65
2023-05-01T11:39:48.936Z,14.65
2023-05-01T11:42:15.451Z,11.20
2023-05-01T11:44:41.873Z,10.00
2023-05-01T11:47:09.101Z,16.40
2023-05-01T11:49:35.533Z,15.63
2023-05-01T11:52:01.914Z,16.08
2023-05-01T11:54:28.315Z,10.60
2023-05-01T11:57:01.005Z,12.07
2023-05-01T11:59:27.640Z,17.02
2023-05-01T12:01:54.121Z,6.45
2023-05-01T12:04:24.800Z,10.65
2023-05-01T12:06:51.766Z,12.40
2023-05-01T12:09:22.875Z,9.45
2023-05-01T12:11:52.394Z,10.15
2023-05-01T12:14:19.622Z,11.52
2023-05-01T12:16:46.479Z,9.13
2023-05-01T12:19:13.682Z,12.05
2023-05-01T12:21:40.365Z,10.85
2023-05-01T12:24:16.211Z,12.63
2023-05-01T12:26:42.817Z,11.30
2023-05-01T12:29:09.697Z,10.10
2023-05-01T12:31:36.722Z,13.48
2023-05-01T12:34:04.114Z,12.18
2023-05-01T12:36:31.812Z,12.93
2023-05-01T12:39:00.651Z,20.80
2023-05-01T12:41:37.327Z,10.55
2023-05-01T12:44:23.988Z,13.75
2023-05-01T12:46:58.814Z,13.93
2023-05-01T12:49:25.835Z,10.80
2023-05-01T12:51:53.381Z,8.85
2023-05-01T12:54:20.738Z,12.23
2023-05-01T12:56:47.150Z,7.88
2023-05-01T12:59:23.516Z,11.70
2023-05-01T13:02:05.988Z,10.73
2023-05-01T13:04:32.845Z,9.15
2023-05-01T13:06:59.780Z,7.53
2023-05-01T13:09:32.825Z,11.93
2023-05-01T13:12:05.836Z,11.00
2023-05-01T13:14:38.987Z,10.95
2023-05-01T13:17:09.283Z,8.90
2023-05-01T13:19:36.365Z,8.52
2023-05-01T13:22:02.852Z,11.45
2023-05-01T13:24:38.218Z,9.15
2023-05-01T13:27:05.756Z,9.63
2023-05-01T13:29:32.582Z,6.35
2023-05-01T13:31:59.085Z,5.82
2023-05-01T13:34:29.047Z,8.35
2023-05-01T13:36:56.134Z,4.60
2023-05-01T13:39:22.710Z,8.80
2023-05-01T13:41:49.825Z,7.75
2023-05-01T13:44:16.750Z,8.60
2023-05-01T13:46:43.097Z,9.90
2023-05-01T13:49:09.636Z,9.77
2023-05-01T13:51:42.626Z,12.82
2023-05-01T13:54:09.763Z,8.15
2023-05-01T13:56:37.298Z,11.25
2023-05-01T13:59:04.056Z,10.63
2023-05-01T14:01:30.431Z,12.93
2023-05-01T14:04:05.655Z,11.73
2023-05-01T14:06:32.120Z,11.77
2023-05-01T14:09:00.424Z,8.23
2023-05-01T14:11:26.754Z,13.02
2023-05-01T14:13:55.892Z,10.88
2023-05-01T14:16:26.073Z,10.48
2023-05-01T14:18:57.057Z,7.20
2023-05-01T14:21:25.141Z,14.50
2023-05-01T14:23:52.500Z,13.00
2023-05-01T14:26:19.243Z,14.82
2023-05-01T14:28:46.361Z,6.70
2023-05-01T14:31:21.829Z,11.95
2023-05-01T14:33:48.252Z,15.98
2023-05-01T14:36:14.963Z,7.85
2023-05-01T14:38:41.597Z,14.32
2023-05-01T14:41:11.717Z,10.32
2023-05-01T14:43:40.565Z,9.38
2023-05-01T14:46:06.999Z,10.90
2023-05-01T14:48:37.099Z,13.95
2023-05-01T14:51:09.852Z,10.95
2023-05-01T14:53:36.218Z,10.02
2023-05-01T14:56:02.619Z,12.07
2023-05-01T14:58:29.180Z,16.65
2023-05-01T15:00:55.480Z,13.23
2023-05-01T15:03:22.286Z,9.90
2023-05-01T15:05:48.950Z,11.10
2023-05-01T15:08:15.623Z,15.48
2023-05-01T15:10:42.388Z,15.38
2023-05-01T15:13:09.314Z,14.60
2023-05-01T15:15:35.719Z,24.08
2023-05-01T15:18:04.126Z,18.17
2023-05-01T15:20:31.169Z,11.80
2023-05-01T15:22:57.526Z,22.27
2023-05-01T15:25:24.277Z,15.80
2023-05-01T15:27:51.474Z,20.27
2023-05-01T15:30:17.854Z,14.82
2023-05-01T15:32:44.637Z,13.02
2023-05-01T15:35:11.148Z,14.75
2023-05-01T15:37:37.472Z,18.95
2023-05-01T15:40:04.392Z,17.30
2023-05-01T15:42:30.940Z,18.58
2023-05-01T15:44:57.601Z,15.70
2023-05-01T15:47:24.414Z,15.85
2023-05-01T15:49:50.809Z,20.38
2023-05-01T15:52:17.220Z,27.05
2023-05-01T15:54:45.949Z,21.10
2023-05-01T15:57:12.420Z,22.75
2023-05-01T15:59:39.295Z,21.52
2023-05-01T16:02:07.371Z,23.15
2023-05-01T16:04:34.027Z,14.02
2023-05-01T16:07:01.801Z,19.58
2023-05-01T16:09:31.825Z,19.67
2023-05-01T16:11:59.459Z,19.48
2023-05-01T16:14:26.548Z,26.08
2023-05-01T16:16:53.174Z,23.15
2023-05-01T16:19:19.783Z,25.42
2023-05-01T16:21:46.095Z,23.70
2023-05-01T16:24:13.494Z,32.83
2023-05-01T16:26:40.105Z,30.52
2023-05-01T16:29:07.052Z,23.30
2023-05-01T16:31:40.827Z,23.15
2023-05-01T16:34:10.647Z,29.60
2023-05-01T16:36:40.206Z,33.53
2023-05-01T16:39:08.886Z,30.25
2023-05-01T16:41:40.933Z,32.00
2023-05-01T16:44:07.312Z,31.25
2023-05-01T16:46:33.987Z,37.22
2023-05-01T16:49:00.395Z,34.20
2023-05-01T16:51:28.445Z,17.38
2023-05-01T16:53:54.782Z,25.90
2023-05-01T16:56:21.949Z,29.55
2023-05-01T16:58:48.367Z,26.90
2023-05-01T17:01:14.913Z,31.42
2023-05-01T17:03:41.264Z,26.05
2023-05-01T17:06:07.694Z,27.83
2023-05-01T17:08:34.168Z,21.40
2023-05-01T17:11:00.624Z,26.40
2023-05-01T17:13:27.094Z,25.13
2023-05-01T17:15:53.529Z,28.13
2023-05-01T17:18:20.062Z,28.10
2023-05-01T17:20:48.018Z,22.38
2023-05-01T17:23:14.491Z,25.55
2023-05-01T17:25:40.997Z,30.33
2023-05-01T17:28:07.341Z,31.23
2023-05-01T17:30:33.897Z,29.30
2023-05-01T17:33:00.707Z,30.48
2023-05-01T17:35:27.325Z,30.15
2023-05-01T17:37:53.709Z,31.88
2023-05-01T17:40:20.050Z,34.47
2023-05-01T17:42:46.509Z,36.92
2023-05-01T17:45:12.976Z,27.65
2023-05-01T17:47:41.829Z,30.55
2023-05-01T17:50:09.768Z,37.63
2023-05-01T17:52:36.115Z,29.65
2023-05-01T17:55:02.920Z,30.50
2023-05-01T17:57:29.304Z,24.80
2023-05-01T17:59:55.781Z,21.10
2023-05-01T18:02:22.945Z,26.80
2023-05-01T18:04:50.517Z,23.60
2023-05-01T18:07:17.170Z,24.85
2023-05-01T18:09:45.295Z,26.88
2023-05-01T18:12:11.766Z,31.85
2023-05-01T18:14:38.828Z,26.67
2023-05-01T18:17:05.440Z,24.77
2023-05-01T18:19:31.883Z,27.67
2023-05-01T18:21:59.173Z,29.90
2023-05-01T18:24:27.112Z,25.58
2023-05-01T18:26:53.510Z,27.38
2023-05-01T18:29:20.222Z,29.13
2023-05-01T18:31:46.995Z,27.35
2023-05-01T18:34:13.485Z,27.35
2023-05-01T18:36:39.908Z,27.02
2023-05-01T18:39:06.329Z,26.77
2023-05-01T18:41:35.479Z,26.05
2023-05-01T18:44:04.167Z,21.92
2023-05-01T18:46:30.798Z,26.17
2023-05-01T18:48:57.268Z,20.63
2023-05-01T18:51:23.824Z,27.30
2023-05-01T18:53:50.204Z,28.58
2023-05-01T18:56:19.333Z,25.90
2023-05-01T18:58:45.781Z,28.38
2023-05-01T19:01:12.272Z,28.55
2023-05-01T19:03:38.941Z,25.75
2023-05-01T19:06:05.615Z,26.60
2023-05-01T19:08:32.040Z,35.17
2023-05-01T19:10:58.657Z,31.45
2023-05-01T19:13:25.116Z,29.42
2023-05-01T19:15:51.707Z,33.95
2023-05-01T19:18:18.174Z,34.08
2023-05-01T19:20:45.994Z,32.92
2023-05-01T19:23:12.600Z,34.25
2023-05-01T19:25:39.032Z,38.30
2023-05-01T19:28:05.396Z,40.13
2023-05-01T19:30:31.792Z,45.25
2023-05-01T19:32:58.467Z,42.95
2023-05-01T19:35:27.517Z,40.72
2023-05-01T19:37:56.578Z,52.13
2023-05-01T19:40:23.528Z,44.28
2023-05-01T19:42:50.875Z,44.50
2023-05-01T19:45:17.953Z,52.50
2023-05-01T19:47:45.669Z,44.47
2023-05-01T19:50:12.468Z,49.42
2023-05-01T19:52:41.006Z,57.10
2023-05-01T19:55:08.420Z,54.47
2023-05-01T19:57:36.465Z,58.25
2023-05-01T20:00:03.172Z,62.28
2023-05-01T20:02:32.074Z,65.82
2023-05-01T20:04:58.804Z,58.38
2023-05-01T20:07:26.206Z,74.03
2023-05-01T20:09:53.661Z,76.38
2023-05-01T20:12:20.077Z,74.20
2023-05-01T20:14:48.285Z,67.82
2023-05-01T20:17:14.769Z,71.22
2023-05-01T20:19:41.111Z,73.50
2023-05-01T20:22:07.522Z,69.57
2023-05-01T20:24:33.959Z,77.72
2023-05-01T20:27:00.506Z,72.25
2023-05-01T20:29:27.010Z,75.45
2023-05-01T20:31:53.530Z,79.28
2023-05-01T20:34:20.748Z,76.10
2023-05-01T20:36:47.209Z,80.80
2023-05-01T20:39:13.832Z,77.28
2023-05-01T20:41:40.284Z,85.22
2023-05-01T20:44:07.093Z,83.03
2023-05-01T20:46:34.884Z,82.35
2023-05-01T20:49:01.407Z,79.90
2023-05-01T20:51:27.876Z,85.18
2023-05-01T20:53:54.401Z,89.38
2023-05-01T20:56:22.029Z,73.20
2023-05-01T20:58:51.250Z,73.75
2023-05-01T21:01:17.854Z,78.07
2023-05-01T21:03:44.353Z,81.57
2023-05-01T21:06:11.113Z,77.75
2023-05-01T21:08:37.510Z,65.60
2023-05-01T21:11:03.964Z,69.53
2023-05-01T21:13:31.582Z,73.82
2023-05-01T21:15:58.093Z,88.15
2023-05-01T21:18:24.975Z,77.20
2023-05-01T21:20:51.862Z,77.57
2023-05-01T21:23:18.547Z,92.20
2023-05-01T21:25:45.105Z,81.97
2023-05-01T21:28:12.542Z,106.88
2023-05-01T21:30:39.621Z,89.88
2023-05-01T21:33:07.550Z,92.30
2023-05-01T21:35:34.164Z,125.30
2023-05-01T21:38:00.752Z,138.05
2023-05-01T21:40:27.430Z,133.70
2023-05-01T21:42:54.333Z,144.77
2023-05-01T21:45:20.862Z,133.13
2023-05-01T21:47:48.511Z,150.88
2023-05-01T21:50:16.463Z,155.52
2023-05-01T21:52:49.294Z,157.15
2023-05-01T21:55:20.575Z,153.05
2023-05-01T21:57:47.380Z,74.05
2023-05-01T22:00:14.184Z,75.32
2023-05-01T22:02:44.908Z,172.63
2023-05-01T22:05:12.720Z,160.35
2023-05-01T22:07:40.372Z,141.18
2023-05-01T22:10:14.843Z,152.35
2023-05-01T22:12:42.025Z,125.75
2023-05-01T22:15:09.711Z,112.82
2023-05-01T22:17:37.085Z,124.72
2023-05-01T22:20:06.276Z,105.03
2023-05-01T22:22:32.957Z,114.85
2023-05-01T22:24:59.554Z,117.90
2023-05-01T22:27:25.981Z,118.40
2023-05-01T22:29:52.459Z,67.80
2023-05-01T22:32:19.347Z,120.80
2023-05-01T22:34:45.873Z,114.00
2023-05-01T22:37:12.344Z,118.82
2023-05-01T22:39:38.886Z,108.40
2023-05-01T22:42:05.485Z,131.40
2023-05-01T22:44:32.737Z,105.85
2023-05-01T22:46:59.921Z,144.80
2023-05-01T22:49:28.166Z,207.23
2023-05-01T22:51:55.310Z,191.73
2023-05-01T22:54:22.155Z,185.02
2023-05-01T22:56:49.947Z,233.18
2023-05-01T22:59:17.207Z,214.07
2023-05-01T23:01:44.099Z,218.00
2023-05-01T23:04:11.052Z,224.63
2023-05-01T23:06:37.835Z,259.95
2023-05-01T23:09:04.315Z,198.88
2023-05-01T23:11:32.818Z,222.05
2023-05-01T23:13:59.777Z,207.57
2023-05-01T23:16:26.827Z,227.93
2023-05-01T23:18:56.863Z,198.65
2023-05-01T23:21:23.569Z,259.75
2023-05-01T23:23:50.773Z,233.45
2023-05-01T23:26:26.905Z,213.00
2023-05-01T23:28:53.554Z,229.10
2023-05-01T23:31:25.280Z,262.92
2023-05-01T23:33:52.051Z,220.82
2023-05-01T23:36:18.694Z,259.13
2023-05-01T23:38:47.493Z,221.32
2023-05-01T23:41:13.956Z,210.80
2023-05-01T23:43:40.567Z,223.55
2023-05-01T23:46:07.725Z,218.65
2023-05-01T23:48:34.640Z,242.73
2023-05-01T23:51:01.460Z,258.70
2023-05-01T23:53:29.090Z,262.27
2023-05-01T23:55:55.831Z,272.67
2023-05-01T23:58:23.040Z,265.70
